createdAt,value
2022-07-29T00:01:48.481Z,101564.28
2022-07-29T00:09:23.508Z,101562.50
2022-07-29T00:16:57.080Z,101551.69
2022-07-29T00:24:32.495Z,101550.78
2022-07-29T00:32:06.289Z,101550.81
2022-07-29T00:39:41.252Z,101546.28
2022-07-29T00:47:15.116Z,101548.13
2022-07-29T00:54:50.058Z,101531.91
2022-07-29T01:02:24.006Z,101530.97
2022-07-29T01:09:59.807Z,101530.06
2022-07-29T01:17:35.646Z,101524.69
2022-07-29T01:25:26.860Z,101512.97
2022-07-29T01:33:05.105Z,101487.75
2022-07-29T01:40:43.019Z,101456.25
2022-07-29T01:48:20.315Z,101454.47
2022-07-29T01:55:54.930Z,101459.88
2022-07-29T02:03:35.774Z,101440.06
2022-07-29T02:11:10.394Z,101450.84
2022-07-29T02:18:47.725Z,101455.38
2022-07-29T02:26:22.409Z,101466.16
2022-07-29T02:33:58.244Z,101458.06
2022-07-29T02:41:35.483Z,101458.91
2022-07-29T02:49:12.011Z,101449.03
2022-07-29T02:56:46.743Z,101443.63
2022-07-29T03:04:22.486Z,101452.63
2022-07-29T03:11:57.102Z,101451.72
2022-07-29T03:19:33.135Z,101448.09
2022-07-29T03:27:06.853Z,101434.59
2022-07-29T03:34:41.727Z,101440.88
2022-07-29T03:42:18.837Z,101421.97
2022-07-29T03:49:54.880Z,101423.78
2022-07-29T03:57:30.460Z,101423.78
2022-07-29T04:05:05.749Z,101431.88
2022-07-29T04:12:39.398Z,101438.13
2022-07-29T04:20:14.891Z,101433.66
2022-07-29T04:28:02.186Z,101435.44
2022-07-29T04:35:38.903Z,101444.47
2022-07-29T04:43:24.599Z,101439.06
2022-07-29T04:51:00.009Z,101440.88
2022-07-29T04:58:33.624Z,101450.81
2022-07-29T05:06:08.567Z,101449.03
2022-07-29T05:13:45.247Z,101431.97
2022-07-29T05:21:22.071Z,101443.66
2022-07-29T05:28:55.921Z,101425.69
2022-07-29T05:36:31.100Z,101443.69
2022-07-29T05:44:04.799Z,101435.59
2022-07-29T05:51:39.780Z,101441.84
2022-07-29T05:59:17.901Z,101423.84
2022-07-29T06:06:53.207Z,101434.63
2022-07-29T06:14:27.472Z,101432.81
2022-07-29T06:22:02.776Z,101419.28
2022-07-29T06:29:36.401Z,101432.75
2022-07-29T06:37:15.433Z,101432.69
2022-07-29T06:44:49.415Z,101437.13
2022-07-29T06:52:24.337Z,101441.53
2022-07-29T06:59:58.108Z,101441.44
2022-07-29T07:07:33.144Z,101453.94
2022-07-29T07:15:07.459Z,101443.88
2022-07-29T07:22:42.437Z,101435.50
2022-07-29T07:30:17.912Z,101421.59
2022-07-29T07:37:52.833Z,101432.16
2022-07-29T07:45:26.579Z,101427.00
2022-07-29T07:53:03.118Z,101415.16
2022-07-29T08:00:36.799Z,101412.69
2022-07-29T08:08:11.839Z,101417.78
2022-07-29T08:15:46.871Z,101410.50
2022-07-29T08:23:22.117Z,101399.19
2022-07-29T08:30:55.704Z,101396.25
2022-07-29T08:38:30.713Z,101397.41
2022-07-29T08:46:04.484Z,101397.38
2022-07-29T08:53:40.080Z,101401.44
2022-07-29T09:01:15.997Z,101399.78
2022-07-29T09:08:54.494Z,101397.19
2022-07-29T09:16:51.806Z,101385.53
2022-07-29T09:24:23.144Z,101383.25
2022-07-29T09:31:57.249Z,101376.75
2022-07-29T09:39:33.187Z,101372.91
2022-07-29T09:47:08.012Z,101372.34
2022-07-29T09:54:43.182Z,101369.16
2022-07-29T10:02:23.760Z,101356.94
2022-07-29T10:09:59.325Z,101353.75
2022-07-29T10:17:32.936Z,101349.78
2022-07-29T10:25:10.898Z,101354.63
2022-07-29T10:32:54.372Z,101359.03
2022-07-29T10:40:55.060Z,101343.16
2022-07-29T10:48:31.665Z,101345.91
2022-07-29T10:56:25.410Z,101339.03
2022-07-29T11:03:59.091Z,101333.53
2022-07-29T11:11:35.248Z,101329.31
2022-07-29T11:19:29.923Z,101326.38
2022-07-29T11:27:18.217Z,101318.25
2022-07-29T11:35:17.747Z,101310.16
2022-07-29T11:42:54.973Z,101304.69
2022-07-29T11:50:31.386Z,101307.06
2022-07-29T11:58:08.599Z,101288.16
2022-07-29T12:05:48.176Z,101293.94
2022-07-29T12:13:37.470Z,101287.16
2022-07-29T12:21:12.539Z,101279.81
2022-07-29T12:28:47.780Z,101272.09
2022-07-29T12:36:21.667Z,101262.84
2022-07-29T12:43:57.267Z,101260.22
2022-07-29T12:51:32.060Z,101248.56
2022-07-29T12:59:15.087Z,101251.50
2022-07-29T13:06:49.680Z,101255.09
2022-07-29T13:14:35.914Z,101248.97
2022-07-29T13:22:09.892Z,101237.78
2022-07-29T13:29:45.192Z,101230.84
2022-07-29T13:37:19.378Z,101228.38
2022-07-29T13:44:54.858Z,101223.56
2022-07-29T13:52:28.417Z,101217.09
2022-07-29T14:00:03.652Z,101212.09
2022-07-29T14:07:37.489Z,101203.59
2022-07-29T14:15:12.479Z,101189.13
2022-07-29T14:22:46.167Z,101191.25
2022-07-29T14:30:21.183Z,101185.13
2022-07-29T14:37:55.230Z,101176.44
2022-07-29T14:45:30.373Z,101172.19
2022-07-29T14:53:04.096Z,101174.38
2022-07-29T15:00:39.078Z,101169.91
2022-07-29T15:08:12.965Z,101172.00
2022-07-29T15:15:47.924Z,101179.19
2022-07-29T15:23:21.550Z,101167.25
2022-07-29T15:30:56.478Z,101162.66
2022-07-29T15:38:30.466Z,101155.53
2022-07-29T15:46:22.943Z,101158.50
2022-07-29T15:53:56.736Z,101154.84
2022-07-29T16:01:31.758Z,101147.00
2022-07-29T16:09:05.721Z,101135.69
2022-07-29T16:16:41.663Z,101127.84
2022-07-29T16:24:16.049Z,101114.63
2022-07-29T16:31:52.966Z,101111.47
2022-07-29T16:39:26.822Z,101104.69
2022-07-29T16:47:02.033Z,101103.22
2022-07-29T16:54:35.945Z,101106.72
2022-07-29T17:02:12.085Z,101113.50
2022-07-29T17:09:45.718Z,101124.41
2022-07-29T17:17:38.447Z,101105.19
2022-07-29T17:25:21.013Z,101112.47
2022-07-29T17:32:56.275Z,101110.97
2022-07-29T17:40:29.955Z,101116.09
2022-07-29T17:48:05.301Z,101107.44
2022-07-29T17:55:39.642Z,101110.69
2022-07-29T18:03:14.730Z,101110.41
2022-07-29T18:10:48.724Z,101115.50
2022-07-29T18:18:23.670Z,101121.38
2022-07-29T18:25:57.328Z,101132.88
2022-07-29T18:33:32.683Z,101129.28
2022-07-29T18:41:06.473Z,101150.50
2022-07-29T18:48:41.442Z,101140.91
2022-07-29T18:56:15.395Z,101139.81
2022-07-29T19:03:50.404Z,101140.44
2022-07-29T19:11:24.273Z,101153.91
2022-07-29T19:19:00.922Z,101167.97
2022-07-29T19:26:36.786Z,101166.84
2022-07-29T19:34:12.064Z,101176.44
2022-07-29T19:41:45.814Z,101178.09
2022-07-29T19:49:20.800Z,101186.84
2022-07-29T19:56:54.407Z,101187.06
2022-07-29T20:04:29.499Z,101175.13
2022-07-29T20:12:04.805Z,101187.50
2022-07-29T20:19:40.334Z,101183.41
2022-07-29T20:27:14.275Z,101183.78
2022-07-29T20:34:49.241Z,101193.06
2022-07-29T20:42:22.789Z,101189.91
2022-07-29T20:49:57.969Z,101200.31
2022-07-29T20:57:39.556Z,101198.88
2022-07-29T21:05:15.014Z,101204.75
2022-07-29T21:12:49.091Z,101206.72
2022-07-29T21:20:24.297Z,101215.19
2022-07-29T21:28:15.445Z,101217.22
2022-07-29T21:43:44.250Z,101212.72
2022-07-29T21:51:19.239Z,101216.53
2022-07-29T21:58:52.878Z,101205.06
2022-07-29T22:06:28.091Z,101214.34
2022-07-29T22:14:01.738Z,101209.13
2022-07-29T22:21:36.681Z,101211.19
2022-07-29T22:29:11.653Z,101206.00
2022-07-29T22:36:46.570Z,101198.09
2022-07-29T22:44:20.113Z,101197.38
2022-07-29T22:51:55.009Z,101180.38
2022-07-29T22:59:28.575Z,101181.50
2022-07-29T23:07:03.621Z,101169.81
2022-07-29T23:14:37.750Z,101161.94
2022-07-29T23:22:12.695Z,101170.31
2022-07-29T23:29:46.322Z,101167.81
2022-07-29T23:37:21.364Z,101163.41
2022-07-29T23:44:54.991Z,101173.63
2022-07-29T23:52:30.027Z,101169.28
